Latest Weather Observations for Gove Airport

IDD60801

Issued at 12:51 pm CST Tuesday 30 November 2021 (issued every 10 minutes, with the page automatically refreshed every 10 minutes)

About weather observations | Map of weather stations | Latest weather observations for NT | Other Formats
Station Details ID: 014508 Name: GOVE AIRPORT Lat: -12.27 Lon: 136.82 Height: 51.6 m
Data from the previous 72 hours. | See also: Recent months at Gove Airport
Date/Time
CST
Temp
°C
App
Temp
°C
Dew
Point
°C
Rel
Hum
%
Delta-T
°C
Wind Press
QNH
hPa
Press
MSL
hPa
Rain since
9am
mm
Dir  Spd
km/h
Gust
km/h
Spd
kts
Gust
kts
30/12:30pm 32.4 34.7 23.4 59 6.3 ENE 17 26 9 14 1007.1 1006.8 0.0
30/12:00pm 33.3 35.5 24.2 59 6.4 ENE 20 30 11 16 1007.3 1007.0 0.0
30/11:30am 32.3 34.7 24.3 62 5.6 ENE 19 30 10 16 1007.9 1007.5 0.0
30/11:00am 32.7 35.5 23.6 58 6.3 NE 15 24 8 13 1008.2 1007.8 0.0
30/10:30am 32.1 34.5 23.6 60 5.9 NE 17 24 9 13 1008.5 1008.1 0.0
30/10:00am 32.5 35.1 24.0 61 5.9 NE 17 28 9 15 1008.8 1008.4 0.0
30/09:30am 32.5 35.4 24.5 62 5.6 NE 17 24 9 13 1009.0 1008.6 0.0
30/09:00am 32.5 35.7 24.3 62 5.8 ENE 15 20 8 11 1009.1 1008.7 0.0
30/08:30am 31.5 35.2 24.6 67 4.9 ENE 13 20 7 11 1009.2 1008.8 0.0
30/08:00am 30.9 34.3 24.1 67 4.7 ESE 13 17 7 9 1009.1 1008.7 0.0
30/07:30am 30.4 34.7 24.3 70 4.3 ESE 9 13 5 7 1008.8 1008.4 0.0
30/07:00am 29.3 35.4 24.4 75 3.4 CALM 0 0 0 0 1008.5 1008.1 0.0
30/06:30am 27.1 32.9 24.0 83 2.1 CALM 0 0 0 0 1008.2 1007.8 0.0
30/06:00am 26.2 32.1 24.1 88 1.5 CALM 0 0 0 0 1007.6 1007.2 0.0
30/05:30am 26.2 32.1 24.1 88 1.5 CALM 0 0 0 0 1007.3 1007.0 0.0
30/05:00am 26.0 31.8 23.9 88 1.4 CALM 0 0 0 0 1007.2 1006.9 0.0
30/04:30am 26.3 32.1 24.0 87 1.6 CALM 0 0 0 0 1006.9 1006.6 0.0
30/04:00am 26.7 32.5 24.0 85 1.9 CALM 0 0 0 0 1006.7 1006.4 0.0
30/03:30am 26.8 32.8 24.3 86 1.7 CALM 0 0 0 0 1006.5 1006.2 0.0
30/03:00am 26.5 31.2 24.0 86 1.7 S 6 7 3 4 1006.6 1006.3 0.0
30/02:30am 27.2 31.8 24.1 83 2.1 E 7 9 4 5 1006.6 1006.3 0.0
30/02:00am 27.3 31.2 24.2 83 2.1 E 11 15 6 8 1006.7 1006.4 0.0
30/01:30am 27.3 31.4 24.0 82 2.3 ENE 9 13 5 7 1007.0 1006.7 0.0
30/01:00am 27.8 31.7 24.2 81 2.5 E 11 13 6 7 1007.6 1007.2 0.0
30/12:30am 27.7 31.8 23.9 80 2.6 ENE 9 11 5 6 1008.3 1007.9 0.0
30/12:00am 28.0 31.8 24.0 79 2.8 E 11 13 6 7 1008.7 1008.3 0.0
 
Date/Time
CST
Temp
°C
App
Temp
°C
Dew
Point
°C
Rel
Hum
%
Delta-T
°C
Wind Press
QNH
hPa
Press
MSL
hPa
Rain since
9am
mm
Dir  Spd
km/h
Gust
km/h
Spd
kts
Gust
kts
29/11:30pm 28.0 32.3 24.2 80 2.6 ESE 9 13 5 7 1009.0 1008.6 0.0
29/11:00pm 28.1 32.6 23.9 78 2.9 SE 7 11 4 6 1009.3 1008.9 0.0
29/10:30pm 28.2 32.6 23.8 77 3.0 ESE 7 11 4 6 1009.4 1009.0 0.0
29/10:00pm 28.4 32.0 23.8 76 3.2 ESE 11 15 6 8 1009.4 1009.0 0.0
29/09:30pm 28.2 32.2 23.8 77 3.0 SE 9 11 5 6 1009.1 1008.7 0.0
29/09:00pm 28.4 32.2 23.5 75 3.4 SE 9 13 5 7 1008.8 1008.4 0.0
29/08:30pm 28.5 31.8 23.2 73 3.6 SE 11 13 6 7 1008.3 1007.9 0.0
29/08:00pm 28.8 32.4 23.0 71 4.0 SE 9 13 5 7 1008.0 1007.6 0.0
29/07:30pm 29.0 32.4 22.7 69 4.3 SE 9 11 5 6 1007.5 1007.1 0.0
29/07:00pm 29.4 32.0 22.6 67 4.6 SE 13 17 7 9 1007.0 1006.7 0.0
29/06:30pm 29.9 31.2 22.3 63 5.2 SE 19 22 10 12 1006.6 1006.3 0.0
29/06:00pm 30.5 32.6 22.4 62 5.5 SSE 15 20 8 11 1006.2 1005.9 0.0
29/05:30pm 31.0 32.1 22.0 58 6.1 SE 19 24 10 13 1006.1 1005.8 0.0
29/05:00pm 31.6 32.5 22.0 56 6.5 ESE 20 28 11 15 1005.7 1005.4 0.0
29/04:30pm 32.2 33.3 22.0 55 7.0 ESE 19 26 10 14 1005.6 1005.3 0.0
29/04:00pm 31.9 32.5 21.1 52 7.3 ESE 19 24 10 13 1005.6 1005.3 0.0
29/03:30pm 33.1 33.5 20.9 48 8.2 E 20 28 11 15 1005.6 1005.3 0.0
29/03:00pm 34.0 35.2 21.4 47 8.6 E 17 26 9 14 1006.0 1005.7 0.0
29/02:30pm 33.4 34.1 21.5 49 8.1 ENE 20 30 11 16 1006.3 1006.0 0.0
29/02:00pm 34.0 34.3 20.7 45 8.9 ENE 20 28 11 15 1006.6 1006.3 0.0
29/01:30pm 34.0 34.7 20.4 45 9.1 ENE 17 26 9 14 1006.8 1006.5 0.0
29/01:00pm 34.0 34.6 21.1 47 8.7 ENE 19 26 10 14 1007.2 1006.9 0.0
29/12:30pm 34.2 34.8 20.2 43 9.4 ENE 17 24 9 13 1007.7 1007.3 0.0
29/12:00pm 33.7 34.2 20.8 46 8.7 ENE 19 32 10 17 1008.1 1007.7 0.0
29/11:30am 33.4 33.6 20.2 46 8.8 NE 19 26 10 14 1008.3 1007.9 0.0
29/11:00am 33.6 34.8 20.0 44 9.1 ENE 13 22 7 12 1008.6 1008.2 0.0
29/10:30am 33.5 34.6 19.6 44 9.2 ENE 13 28 7 15 1008.9 1008.5 0.0
29/10:00am 33.4 33.9 18.3 40 9.8 ESE 13 20 7 11 1009.3 1008.9 0.0
29/09:30am 32.6 34.3 20.2 48 8.3 SE 11 20 6 11 1009.3 1008.9 0.0
29/09:00am 31.8 34.1 20.7 51 7.4 ESE 9 15 5 8 1009.4 1009.0 0.0
29/08:30am 30.9 32.6 21.7 58 6.2 ESE 15 19 8 10 1009.2 1008.8 0.0
29/08:00am 30.4 33.4 22.6 63 5.3 ESE 11 15 6 8 1009.0 1008.6 0.0
29/07:30am 28.9 32.8 22.6 69 4.3 SE 6 7 3 4 1008.7 1008.3 0.0
29/07:00am 26.5 31.6 22.6 79 2.6 CALM 0 0 0 0 1008.5 1008.1 0.0
29/06:30am 24.6 29.2 21.7 84 1.9 CALM 0 0 0 0 1008.0 1007.6 0.0
29/06:00am 23.9 28.5 21.8 88 1.4 CALM 0 0 0 0 1007.6 1007.2 0.0
29/05:30am 24.0 28.6 21.7 87 1.5 CALM 0 0 0 0 1007.1 1006.8 0.0
29/05:00am 24.2 28.9 21.9 87 1.5 CALM 0 0 0 0 1006.9 1006.6 0.0
29/04:30am 24.4 29.2 22.1 87 1.5 CALM 0 0 0 0 1006.7 1006.4 0.0
29/04:00am 24.5 29.3 22.2 87 1.5 CALM 0 0 0 0 1006.7 1006.4 0.0
29/03:30am 24.7 29.5 22.2 86 1.7 CALM 0 2 0 1 1006.8 1006.5 0.0
29/03:00am 24.9 29.5 22.4 86 1.7 SW 2 6 1 3 1006.9 1006.6 0.0
29/02:30am 25.0 29.5 22.3 85 1.8 SW 2 6 1 3 1007.0 1006.7 0.0
29/02:00am 25.0 30.0 22.5 86 1.7 CALM 0 0 0 0 1007.3 1007.0 0.0
29/01:30am 25.4 30.4 22.5 84 2.0 CALM 0 0 0 0 1007.6 1007.2 0.0
29/01:00am 25.6 30.6 22.5 83 2.1 CALM 0 0 0 0 1007.9 1007.5 0.0
29/12:30am 26.2 31.4 22.9 82 2.2 CALM 0 0 0 0 1008.3 1007.9 0.0
29/12:00am 26.5 30.6 23.0 81 2.4 ESE 6 7 3 4 1008.5 1008.1 0.0
 
Date/Time
CST
Temp
°C
App
Temp
°C
Dew
Point
°C
Rel
Hum
%
Delta-T
°C
Wind Press
QNH
hPa
Press
MSL
hPa
Rain since
9am
mm
Dir  Spd
km/h
Gust
km/h
Spd
kts
Gust
kts
28/11:30pm 26.6 30.6 23.1 81 2.4 ESE 7 7 4 4 1008.8 1008.4 0.0
28/11:00pm 26.9 30.8 22.9 79 2.7 ESE 7 9 4 5 1009.0 1008.6 0.0
28/10:30pm 27.2 30.8 23.0 78 2.9 E 9 11 5 6 1009.3 1008.9 0.0
28/10:00pm 27.3 30.9 23.1 78 2.9 ESE 9 11 5 6 1009.0 1008.6 0.0
28/09:30pm 27.3 31.1 22.7 76 3.1 SE 7 9 4 5 1008.9 1008.5 0.0
28/09:00pm 27.7 31.2 22.9 75 3.3 SE 9 11 5 6 1008.6 1008.2 0.0
28/08:30pm 27.8 31.2 22.7 74 3.5 SE 9 13 5 7 1008.7 1008.3 0.0
28/08:00pm 28.1 31.1 22.6 72 3.7 SE 11 15 6 8 1008.5 1008.1 0.0
28/07:30pm 28.5 31.7 22.3 69 4.2 SSE 9 13 5 7 1008.3 1007.9 0.0
28/07:00pm 28.8 31.1 22.1 67 4.5 SSE 13 19 7 10 1007.8 1007.4 0.0
28/06:30pm 29.2 30.3 21.9 64 4.9 SSE 19 26 10 14 1007.6 1007.2 0.0
28/06:00pm 29.7 30.6 21.6 61 5.5 SSE 19 26 10 14 1007.2 1006.9 0.0
28/05:30pm 30.7 31.4 21.5 58 6.2 SSE 20 28 11 15 1007.0 1006.7 0.0
28/05:00pm 30.9 30.4 20.8 55 6.7 SE 24 32 13 17 1006.8 1006.5 0.0
28/04:30pm 31.6 31.6 20.2 50 7.6 SSE 20 30 11 16 1006.6 1006.3 0.0
28/04:00pm 32.1 32.0 20.7 51 7.6 SE 22 33 12 18 1006.7 1006.4 0.0
28/03:30pm 32.8 32.3 20.0 47 8.5 SE 22 35 12 19 1006.8 1006.5 0.0
28/03:00pm 33.5 31.8 17.2 37 10.5 SE 22 28 12 15 1006.9 1006.6 0.0
28/02:30pm 33.8 32.6 17.5 38 10.5 SE 20 26 11 14 1007.1 1006.8 0.0
28/02:00pm 33.5 31.9 16.4 36 10.8 SE 20 28 11 15 1007.8 1007.4 0.0
28/01:30pm 34.1 33.4 18.2 39 10.4 SE 19 35 10 19 1008.1 1007.7 0.0
28/01:00pm 34.7 33.3 16.5 33 11.6 ESE 19 28 10 15 1008.5 1008.1 0.0
28/12:30pm 34.3 32.6 16.2 34 11.5 SSE 20 30 11 16 1008.8 1008.4 0.0
28/12:00pm 34.0 33.5 17.7 38 10.5 SSE 17 30 9 16 1009.2 1008.8 0.0
28/11:30am 34.5 34.0 16.8 34 11.3 SE 15 20 8 11 1009.4 1009.0 0.0
28/11:00am 33.4 35.8 20.9 48 8.4 ESE 9 17 5 9 1009.8 1009.4 0.0
28/10:30am 33.1 34.3 19.9 45 8.8 E 13 20 7 11 1010.0 1009.6 0.0
28/10:00am 32.8 33.7 20.0 47 8.5 ESE 15 22 8 12 1010.2 1009.8 0.0
28/09:30am 31.9 33.5 19.9 49 7.9 SE 11 19 6 10 1010.4 1010.0 0.0
28/09:00am 31.4 33.5 21.0 54 7.0 ESE 11 15 6 8 1010.3 1009.9 0.0
28/08:30am 30.8 33.3 21.0 56 6.6 SE 9 15 5 8 1010.1 1009.7 0.0
28/08:00am 30.0 33.4 22.7 65 5.0 SE 9 15 5 8 1010.0 1009.6 0.0
28/07:30am 29.0 34.1 23.4 72 3.9 SE 2 7 1 4 1009.7 1009.3 0.0
28/07:00am 26.9 32.5 23.6 82 2.3 CALM 0 0 0 0 1009.3 1008.9 0.0
28/06:30am 25.7 31.4 23.7 89 1.4 CALM 0 0 0 0 1008.9 1008.5 0.0
28/06:00am 24.5 29.7 22.9 91 1.1 CALM 0 0 0 0 1008.5 1008.1 0.0
28/05:30am 24.8 30.3 23.4 92 1.0 CALM 0 0 0 0 1008.3 1007.9 0.0
28/05:00am 24.9 30.3 23.3 91 1.1 CALM 0 0 0 0 1007.9 1007.5 0.0
28/04:30am 25.0 30.5 23.4 91 1.1 CALM 0 0 0 0 1007.6 1007.2 0.0
28/04:00am 25.4 31.0 23.6 90 1.2 CALM 0 0 0 0 1007.5 1007.1 0.0
28/03:30am 25.6 31.2 23.5 88 1.4 CALM 0 0 0 0 1007.3 1007.0 0.0
28/03:00am 25.6 31.2 23.5 88 1.4 CALM 0 0 0 0 1007.3 1007.0 0.0
28/02:30am 25.7 31.4 23.7 89 1.4 CALM 0 0 0 0 1007.3 1007.0 0.0
28/02:00am 25.4 31.0 23.5 89 1.3 CALM 0 0 0 0 1007.6 1007.2 0.0
28/01:30am 25.6 31.0 23.3 87 1.6 CALM 0 0 0 0 1007.7 1007.3 0.0
28/01:00am 25.9 30.3 23.4 86 1.7 SSE 6 7 3 4 1007.8 1007.4 0.0
28/12:30am 26.3 30.5 23.2 83 2.1 S 6 7 3 4 1008.3 1007.9 0.0
28/12:00am 26.8 31.3 23.7 83 2.1 SSE 6 7 3 4 1008.7 1008.3 0.0
 
Date/Time
CST
Temp
°C
App
Temp
°C
Dew
Point
°C
Rel
Hum
%
Delta-T
°C
Wind Press
QNH
hPa
Press
MSL
hPa
Rain since
9am
mm
Dir  Spd
km/h
Gust
km/h
Spd
kts
Gust
kts
27/11:30pm 27.0 31.3 23.7 82 2.3 SE 7 9 4 5 1009.0 1008.6 0.0
27/11:00pm 27.4 31.4 23.8 81 2.5 ESE 9 11 5 6 1009.2 1008.8 0.0
27/10:30pm 27.8 31.8 23.8 79 2.8 SE 9 11 5 6 1009.3 1008.9 0.0
27/10:00pm 28.1 32.1 23.7 77 3.0 SE 9 11 5 6 1009.4 1009.0 0.0
27/09:30pm 28.2 31.7 23.6 76 3.2 SE 11 15 6 8 1009.3 1008.9 0.0
27/09:00pm 28.2 31.3 23.6 76 3.2 SE 13 15 7 8 1009.2 1008.8 0.0
27/08:30pm 28.3 31.9 23.7 76 3.2 SSE 11 15 6 8 1009.5 1009.1 0.0
27/08:00pm 28.4 31.5 23.5 75 3.4 SE 13 17 7 9 1009.2 1008.8 0.0
27/07:30pm 28.5 31.6 23.6 75 3.4 SE 13 17 7 9 1008.9 1008.5 0.0
27/07:00pm 28.6 31.3 23.5 74 3.5 SE 15 20 8 11 1008.7 1008.3 0.0
27/06:30pm 28.8 31.2 23.0 71 4.0 SE 15 20 8 11 1008.4 1008.0 0.0
27/06:00pm 29.4 31.0 22.1 65 4.9 SE 17 24 9 13 1008.1 1007.7 0.0
27/05:30pm 29.6 30.4 21.8 63 5.3 SSE 20 24 11 13 1007.7 1007.3 0.0
27/05:00pm 29.6 30.9 22.6 66 4.8 SSE 20 30 11 16 1007.3 1007.0 0.0
27/04:30pm 29.9 31.2 22.6 65 5.0 SSE 20 30 11 16 1007.2 1006.9 0.0
27/04:00pm 30.4 31.1 22.3 62 5.5 SSE 22 28 12 15 1007.1 1006.8 0.0
27/03:30pm 32.2 31.7 21.4 53 7.3 SE 26 35 14 19 1006.8 1006.5 0.0
27/03:00pm 33.0 32.4 20.5 47 8.4 SSE 24 33 13 18 1006.8 1006.5 0.0
27/02:30pm 32.9 33.1 21.4 50 7.8 SSE 22 28 12 15 1007.0 1006.7 0.0
27/02:00pm 33.1 34.0 20.9 48 8.2 SSE 17 30 9 16 1007.2 1006.9 0.0
27/01:30pm 33.0 34.1 21.2 50 8.0 SSE 17 26 9 14 1007.7 1007.3 0.0
27/01:00pm 33.3 35.3 21.5 50 8.0 SSE 13 20 7 11 1008.1 1007.7 0.0

Other formats

Comma delimited format used in spreadsheet applications
http://www.bom.gov.au/fwo/IDD60801/IDD60801.94150.axf

JavaScript Object Notation format (JSON) in row-major order
http://www.bom.gov.au/fwo/IDD60801/IDD60801.94150.json

Data quality

Most of these data are generated automatically and are frequently updated. Quality checks on data are not normally performed. It is possible for incorrect values to appear. Refer to information at About Latest Weather Observations and please check the disclaimer before using these data.